Tiempo atmosférico en la estación meteorológica de Telde, Centro Forestal Doramas, Las Palmas (344 m.)



Fecha
DESCASC
Temp. máxima en grados centígrados (hora)
DESCASC
Temp. mínima en grados centígrados (hora)
DESCASC
Temp. media en grados centígrados
DESCASC
Racha de viento máxima en m/sg (hora)
DESCASC
Velocidad máxima media en intervalos de 10 minutos(hora)
DESCASC
Precipitaciones diarias en mm
DESCASC
Precipitaciones de 00:00 a 06:00 en mm
DESCASC
Precipitaciones de 06:00 a 12:00 en mm
DESCASC
Precipitaciones de 12:00 a 18:00 en mm
DESCASC
Precipitaciones de 18:00 a 24:00 en mm
DESCASC
28-05-2020 28.4 (10:50) 16.5 (06:00) 22.4 8.06 (15:10) 5 (08:50) 0 0 0 0 0
27-05-2020 28.2 (17:40) 18.3 (07:50) 23.3 5.83 (03:50) 4.44 (04:00) 0 0 0 0 0
26-05-2020 26.7 (14:50) 19.1 (07:50) 22.9 6.67 (03:30) 5 (03:30) 0 0 0 0 0
25-05-2020 29.3 (18:30) 21.6 (09:10) 25.4 6.94 (03:20) 5.28 (03:30) 0 0 0 0 0
24-05-2020 30.7 (18:30) 23.4 (00:00) 27.1 8.89 (01:50) 6.11 (10:20) 0 0 0 0 0
23-05-2020 29.8 (10:40) 20.2 (00:00) 25 11.11 (00:40) 6.39 (01:20) 0 0 0 0 0
22-05-2020 27.2 (16:20) 15.3 (00:00) 21.3 11.39 (01:00) 8.06 (01:30) 0 0 0 0 0
21-05-2020 23.1 (14:10) 15.6 (00:00) 19.4 13.06 (17:00) 8.33 (17:10) 0 0 0 0 0
20-05-2020 24.6 (16:20) 17.3 (00:00) 20.9 10.83 (13:00) 6.39 (13:00) 0 0 0 0 0
19-05-2020 23.6 (16:10) 16.2 (00:00) 19.9 11.11 (17:30) 7.22 (17:30) 0 0 0 0 0
18-05-2020 22.1 (15:00) 15 (00:00) 18.6 11.11 (16:00) 7.22 (17:40) 0 0 0 0 0
17-05-2020 18.5 (13:20) 15.2 (00:00) 16.8 9.72 (01:30) 5.56 (01:30) 0.4 0.2 0 0.2 0
16-05-2020 20.9 (16:40) 15.1 (00:00) 18 12.5 (09:50) 6.94 (13:50) 0.2 0 0.2 0 0
15-05-2020 20.9 (15:00) 14.9 (00:00) 17.9 14.17 (07:10) 7.78 (06:30) 0.6 0.2 0 0.4 0
14-05-2020 22.9 (13:30) 15.4 (00:00) 19.1 15 (18:30) 8.89 (18:30) 0 0 0 0 0
13-05-2020 25.2 (13:30) 16 (00:00) 20.6 12.5 (12:10) 6.11 (18:40) 0 0 0 0 0
12-05-2020 23.2 (16:00) 16 (00:00) 19.6 12.78 (11:40) 7.5 (11:50) 0.2 0 0.2 0 0
11-05-2020 25.2 (14:40) 16.8 (00:00) 21 13.33 (17:10) 7.22 (19:20) 0 0 0 0 0
10-05-2020 24.3 (15:00) 16.6 (00:00) 20.4 14.44 (18:20) 7.78 (17:20) 0 0 0 0 0
09-05-2020 23.9 (11:30) 13.7 (00:00) 18.8 13.89 (14:20) 7.78 (14:50) 0 0 0 0 0
08-05-2020 23.3 (14:50) 16.2 (00:00) 19.8 10 (14:30) 6.11 (11:20) 0 0 0 0 0
07-05-2020 21.2 (12:10) 15.7 (00:00) 18.5 9.17 (17:10) 6.11 (16:00) 0 0 0 0 0
06-05-2020 22.1 (14:40) 14.7 (00:00) 18.4 8.61 (13:20) 5 (16:50) 0 0 0 0 0
05-05-2020 22.4 (15:20) 15 (00:00) 18.7 10.83 (14:10) 6.11 (12:20) 0 0 0 0 0
04-05-2020 20.7 (11:40) 15.3 (00:00) 18 7.22 (21:20) 3.89 (18:50) 0 0 0 0 0
03-05-2020 22.8 (13:10) 12.7 (00:00) 17.7 6.94 (14:20) 3.61 (14:20) 0 0 0 0 0
02-05-2020 23.2 (15:50) 13.2 (00:00) 18.2 8.33 (00:30) 4.44 (00:10) 0 0 0 0 0

Gráficas

Temp. máximas Temp. mínimas Temp. medias Precipitaciones Rachas de viento máximas Velocidades máximas media en intervalos de 10 minutos

Datos horarios

Fecha y hora oficial Temperatura (ºC) Velocidad del viento (km/h) Dirección del viento Racha (km/h) Dirección de racha Precipitación (mm) Presión (hPa) Tendencia (hPa) Humedad (%)
2020-05-31 23:00:00 18.9 5 Norte 17 Norte 0 -- -- 73
2020-05-31 22:00:00 19.5 6 Nordeste 14 Nordeste 0 -- -- 73
2020-05-31 21:00:00 20.4 9 Norte 17 Norte 0 -- -- 69
2020-05-31 20:00:00 21.1 6 Nordeste 21 Norte 0 -- -- 62
2020-05-31 19:00:00 21.6 9 Nordeste 26 Norte 0 -- -- 65
2020-05-31 18:00:00 22.8 14 Norte 31 Norte 0 -- -- 56
2020-05-31 17:00:00 23.4 14 Norte 35 Noroeste 0 -- -- 50
2020-05-31 16:00:00 24.4 18 Norte 35 Noroeste 0 -- -- 47
2020-05-31 15:00:00 24 17 Noroeste 32 Noroeste 0 -- -- 46
2020-05-31 14:00:00 24.6 13 Noroeste 34 Noroeste 0 -- -- 47
2020-05-31 13:00:00 23.6 17 Noroeste 33 Norte 0 -- -- 49
2020-05-31 12:00:00 24.3 14 Norte 31 Noroeste 0 -- -- 50
2020-05-31 11:00:00 23.4 11 Norte 28 Norte 0 -- -- 51
2020-05-31 10:00:00 22.2 11 Norte 30 Noroeste 0 -- -- 55
2020-05-31 09:00:00 20.8 13 Noroeste 30 Norte 0 -- -- 54
2020-05-31 08:00:00 18.6 11 Noroeste 25 Noroeste 0 -- -- 62
2020-05-31 07:00:00 17.3 11 Oeste 15 Oeste 0 -- -- 65
2020-05-31 06:00:00 16.6 4 Oeste 13 Oeste 0 -- -- 67
2020-05-31 05:00:00 17.8 8 Oeste 17 Oeste 0 -- -- 63
2020-05-31 04:00:00 18 12 Oeste 20 Oeste 0 -- -- 65
2020-05-31 03:00:00 17.7 8 Oeste 17 Noroeste 0 -- -- 69
2020-05-31 02:00:00 17.5 4 Noroeste 9 Oeste 0 -- -- 69
2020-05-31 01:00:00 18.5 7 Oeste 19 Noroeste 0 -- -- 69
2020-05-31 00:00:00 18.6 6 Noroeste 23 Noroeste 0 -- -- 70
2020-05-30 23:00:00 18.6 10 Noroeste 25 Noroeste 0 -- -- 68
2020-05-30 22:00:00 18.5 10 Noroeste 21 Noroeste 0 -- -- 71
2020-05-30 21:00:00 19.1 13 Norte 33 Noroeste 0 -- -- 68
2020-05-30 20:00:00 20.4 15 Noroeste 34 Norte 0 -- -- 61
2020-05-30 19:00:00 20.5 17 Norte 30 Norte 0 -- -- 62
2020-05-30 18:00:00 21.4 14 Norte 26 Norte 0 -- -- 65
2020-05-30 17:00:00 20 14 Norte 26 Norte 0 -- -- 68
2020-05-30 16:00:00 19.4 15 Norte 26 Norte 0 -- -- 74
2020-05-30 15:00:00 19.3 11 Norte 24 Norte 0 -- -- 74
2020-05-30 14:00:00 19.7 17 Norte 29 Norte 0 -- -- 76
2020-05-30 13:00:00 21.7 17 Norte 35 Norte 0 -- -- 68
2020-05-30 12:00:00 23.1 11 Norte 23 Norte 0 -- -- 58
2020-05-30 11:00:00 22.1 14 Norte 22 Noroeste 0 -- -- 60
2020-05-30 10:00:00 20.1 11 Noroeste 21 Noroeste 0 -- -- 65
2020-05-30 09:00:00 19.1 8 Noroeste 18 Oeste 0 -- -- 69
2020-05-30 08:00:00 17.9 8 Oeste 22 Oeste 0 -- -- 72
2020-05-30 07:00:00 17.7 13 Oeste 20 Noroeste 0 -- -- 76
2020-05-30 06:00:00 17.8 10 Noroeste 17 Norte 0 -- -- 77
2020-05-30 05:00:00 17.7 3 Oeste 9 Oeste 0 -- -- 75
2020-05-30 04:00:00 17 8 Oeste 12 Noroeste 0 -- -- 79
2020-05-30 03:00:00 17.1 5 Noroeste 17 Noroeste 0 -- -- 78
2020-05-30 02:00:00 17.5 11 Noroeste 22 Norte 0 -- -- 78
2020-05-30 01:00:00 17.7 12 Norte 28 Norte 0 -- -- 78
2020-05-30 00:00:00 17.9 17 Norte 25 Norte 0 -- -- 78
2020-05-29 23:00:00 18.1 12 Norte 26 Norte 0 -- -- 80
2020-05-29 22:00:00 18.3 17 Norte 29 Norte 0 -- -- 77
2020-05-29 21:00:00 18.6 20 Norte 34 Noroeste 0 -- -- 76
2020-05-29 20:00:00 20.3 20 Norte 32 Norte 0 -- -- 70
2020-05-29 19:00:00 22.6 19 Norte 31 Norte 0 -- -- 63
2020-05-29 18:00:00 24 17 Norte 29 Norte 0 -- -- 59
2020-05-29 17:00:00 25.5 13 Norte 28 Norte 0 -- -- 54
2020-05-29 16:00:00 24.7 16 Nordeste 29 Nordeste 0 -- -- 57
2020-05-29 15:00:00 25.9 17 Norte 30 Norte 0 -- -- 54
2020-05-29 14:00:00 25.4 18 Norte 27 Norte 0 -- -- 56
2020-05-29 13:00:00 24.9 16 Norte 26 Norte 0 -- -- 57
2020-05-29 12:00:00 24.3 13 Norte 23 Norte 0 -- -- 58
2020-05-29 11:00:00 23.3 13 Norte 20 Norte 0 -- -- 61
2020-05-29 10:00:00 21.3 5 Norte 15 Noroeste 0 -- -- 64
2020-05-29 09:00:00 18.2 5 Norte 14 Noroeste 0 -- -- 74
2020-05-29 08:00:00 15.4 2 Sudoeste 6 Oeste 0 -- -- 77
2020-05-29 07:00:00 15.1 0 Calma 9 Sur 0 -- -- 78
2020-05-29 06:00:00 15.2 4 Sur 8 Sudoeste 0 -- -- 77
2020-05-29 05:00:00 15.4 5 Oeste 10 Oeste 0 -- -- 78
2020-05-29 04:00:00 15.7 2 Oeste 5 Sur 0 -- -- 80
2020-05-29 03:00:00 16.2 4 Sudoeste 6 Oeste 0 -- -- 77
2020-05-29 02:00:00 16.3 2 Oeste 5 Sudeste 0 -- -- 81
2020-05-29 01:00:00 17.1 2 Sur 10 Sudeste 0 -- -- 80
2020-05-29 00:00:00 17.7 5 Sudeste 8 Sudeste 0 -- -- 78
2020-05-28 23:00:00 18.1 0 Calma 8 Sudeste 0 -- -- 76
2020-05-28 22:00:00 18.9 6 Sudeste 10 Sudeste 0 -- -- 74
2020-05-28 21:00:00 20.6 6 Sudeste 14 Sudeste 0 -- -- 67
2020-05-28 20:00:00 23.4 9 Sudeste 15 Sudeste 0 -- -- 53
2020-05-28 19:00:00 26.4 8 Noroeste 21 Norte 0 -- -- 42
2020-05-28 18:00:00 26.3 12 Este 21 Este 0 -- -- 46
2020-05-28 17:00:00 26.6 14 Este 24 Nordeste 0 -- -- 45
2020-05-28 16:00:00 27.5 15 Nordeste 29 Este 0 -- -- 41
2020-05-28 15:00:00 26.1 16 Este 27 Sudeste 0 -- -- 48
2020-05-28 14:00:00 26.1 14 Este 24 Sudeste 0 -- -- 51
2020-05-28 13:00:00 26.3 12 Nordeste 21 Este 0 -- -- 44
2020-05-28 12:00:00 25.5 13 Nordeste 22 Este 0 -- -- 51
2020-05-28 11:00:00 28.3 9 Nordeste 28 Norte 0 -- -- 31
2020-05-28 10:00:00 27.1 8 Nordeste 28 Norte 0 -- -- 35
2020-05-28 09:00:00 26 16 Norte 26 Norte 0 -- -- 23
2020-05-28 08:00:00 19.6 3 Este 11 Norte 0 -- -- 48
2020-05-28 07:00:00 17.2 0 Calma 7 Este 0 -- -- 44
2020-05-28 06:00:00 16.5 3 Sudoeste 5 Noroeste 0 -- -- 43
2020-05-28 05:00:00 18.5 2 Sudoeste 9 Sudoeste 0 -- -- 37
2020-05-28 04:00:00 19.1 3 Sur 8 Sudeste 0 -- -- 37
2020-05-28 03:00:00 18.8 0 Calma 6 Norte 0 -- -- 41
2020-05-28 02:00:00 19.2 0 Calma 6 Sudeste 0 -- -- 40
2020-05-28 01:00:00 20.7 4 Sudeste 10 Noroeste 0 -- -- 35
2020-05-28 00:00:00 20.3 5 Norte 9 Norte 0 -- -- 41
2020-05-27 23:00:00 20.7 5 Oeste 9 Sudoeste 0 -- -- 42
2020-05-27 22:00:00 19.8 0 Calma 6 Este 0 -- -- 77
2020-05-27 21:00:00 21.8 4 Sudeste 11 Este 0 -- -- 70
2020-05-27 20:00:00 23.9 7 Este 15 Nordeste 0 -- -- 62
2020-05-27 19:00:00 26.2 9 Este 17 Este 0 -- -- 52
2020-05-27 18:00:00 27.2 11 Nordeste 20 Nordeste 0 -- -- 48
2020-05-27 17:00:00 27.6 12 Este 21 Este 0 -- -- 42
2020-05-27 16:00:00 24.8 12 Este 19 Este 0 -- -- 60
2020-05-27 15:00:00 24.3 12 Este 19 Este 0 -- -- 61
2020-05-27 14:00:00 23.2 11 Este 20 Sudeste 0 -- -- 65
2020-05-27 13:00:00 23.4 13 Este 20 Este 0 -- -- 63
2020-05-27 12:00:00 23.1 10 Este 17 Este 0 -- -- 64
2020-05-27 11:00:00 23.3 8 Este 14 Este 0 -- -- 62
2020-05-27 10:00:00 21.2 6 Este 12 Este 0 -- -- 69
2020-05-27 09:00:00 19.9 4 Este 12 Este 0 -- -- 66
2020-05-27 08:00:00 18.5 0 Calma 12 Oeste 0 -- -- 62
2020-05-27 07:00:00 22.2 10 Oeste 14 Oeste 0 -- -- 26
2020-05-27 06:00:00 23.1 9 Oeste 19 Oeste 0 -- -- 26
2020-05-27 05:00:00 20.8 12 Oeste 19 Oeste 0 -- -- 30
2020-05-27 04:00:00 23.8 16 Oeste 21 Oeste 0 -- -- 25
2020-05-27 03:00:00 22.8 10 Oeste 15 Oeste 0 -- -- 29
2020-05-27 02:00:00 23.3 5 Oeste 17 Oeste 0 -- -- 30
2020-05-27 01:00:00 22.9 7 Oeste 13 Oeste 0 -- -- 31
2020-05-27 00:00:00 22.3 10 Oeste 14 Oeste 0 -- -- 44
2020-05-26 23:00:00 23 9 Oeste 18 Oeste 0 -- -- 49
2020-05-26 22:00:00 21.9 8 Oeste 13 Oeste 0 -- -- 52
2020-05-26 21:00:00 22.2 0 Calma 6 Sudeste 0 -- -- 70
2020-05-26 20:00:00 23.7 4 Este 11 Este 0 -- -- 66
2020-05-26 19:00:00 24.6 8 Este 13 Este 0 -- -- 64
2020-05-26 18:00:00 24.7 9 Este 16 Este 0 -- -- 64
2020-05-26 17:00:00 25.4 10 Este 16 Este 0 -- -- 62
2020-05-26 16:00:00 25.8 9 Este 17 Este 0 -- -- 60
2020-05-26 15:00:00 26.6 10 Este 17 Este 0 -- -- 58
2020-05-26 14:00:00 25.9 11 Este 17 Este 0 -- -- 60
2020-05-26 13:00:00 26 10 Este 17 Este 0 -- -- 59
2020-05-26 12:00:00 25.9 10 Este 15 Este 0 -- -- 59
2020-05-26 11:00:00 25.1 10 Este 19 Este 0 -- -- 61
2020-05-26 10:00:00 24.8 3 Nordeste 10 Este 0 -- -- 58
2020-05-26 09:00:00 22.4 4 Este 9 Sudoeste 0 -- -- 57
2020-05-26 08:00:00 19.3 2 Sur 9 Sudoeste 0 -- -- 62
2020-05-26 07:00:00 22.7 4 Oeste 13 Oeste 0 -- -- 27
2020-05-26 06:00:00 24.7 10 Oeste 21 Oeste 0 -- -- 24
2020-05-26 05:00:00 25 14 Oeste 23 Oeste 0 -- -- 23
2020-05-26 04:00:00 25.4 14 Oeste 24 Oeste 0 -- -- 22
2020-05-26 03:00:00 25.5 17 Oeste 22 Oeste 0 -- -- 22
2020-05-26 02:00:00 25.8 15 Oeste 23 Oeste 0 -- -- 21
2020-05-26 01:00:00 25.4 18 Oeste 22 Oeste 0 -- -- 22
2020-05-26 00:00:00 25.2 16 Oeste 20 Oeste 0 -- -- 23
2020-05-25 23:00:00 25.6 10 Oeste 17 Oeste 0 -- -- 24
2020-05-25 22:00:00 26.5 10 Oeste 17 Noroeste 0 -- -- 22
2020-05-25 21:00:00 27.2 12 Noroeste 21 Noroeste 0 -- -- 21
2020-05-25 20:00:00 28.7 11 Noroeste 20 Norte 0 -- -- 22
2020-05-25 19:00:00 29.3 11 Norte 25 Norte 0 -- -- 27
2020-05-25 18:00:00 28.7 11 Nordeste 22 Nordeste 0 -- -- 34
2020-05-25 17:00:00 28.1 10 Nordeste 24 Este 0 -- -- 40
2020-05-25 16:00:00 27.3 11 Este 22 Este 0 -- -- 54
2020-05-25 15:00:00 24.5 13 Este 21 Este 0 -- -- 65
2020-05-25 14:00:00 24.1 13 Este 19 Este 0 -- -- 66
2020-05-25 13:00:00 24.4 11 Este 19 Este 0 -- -- 65
2020-05-25 12:00:00 24.7 9 Este 15 Este 0 -- -- 63
2020-05-25 11:00:00 25.6 7 Este 11 Este 0 -- -- 60
2020-05-25 10:00:00 23.5 8 Este 12 Este 0 -- -- 64
2020-05-25 09:00:00 21.8 8 Este 13 Este 0 -- -- 65
2020-05-25 08:00:00 23.4 9 Sudoeste 16 Oeste 0 -- -- 28
2020-05-25 07:00:00 22.4 6 Oeste 20 Oeste 0 -- -- 27
2020-05-25 06:00:00 23.6 11 Oeste 22 Oeste 0 -- -- 27
2020-05-25 05:00:00 24.2 15 Oeste 25 Oeste 0 -- -- 25
2020-05-25 04:00:00 24.9 15 Oeste 25 Oeste 0 -- -- 24
2020-05-25 03:00:00 24.6 17 Oeste 22 Oeste 0 -- -- 25
2020-05-25 02:00:00 24.3 16 Oeste 22 Oeste 0 -- -- 26
2020-05-25 01:00:00 24.3 9 Oeste 20 Oeste 0 -- -- 27
2020-05-25 00:00:00 24.4 13 Oeste 20 Noroeste 0 -- -- 30
2020-05-24 23:00:00 25.1 13 Oeste 19 Oeste 0 -- -- 31
2020-05-24 22:00:00 26.2 9 Oeste 18 Noroeste 0 -- -- 29
2020-05-24 21:00:00 26.6 8 Noroeste 19 Norte 0 -- -- 29
2020-05-24 20:00:00 27.9 13 Norte 21 Norte 0 -- -- 31
2020-05-24 19:00:00 29.3 13 Este 20 Este 0 -- -- 42
2020-05-24 18:00:00 28.4 7 Nordeste 22 Sudeste 0 -- -- 32
2020-05-24 17:00:00 29.6 13 Nordeste 30 Este 0 -- -- 33
2020-05-24 16:00:00 29.3 13 Nordeste 24 Este 0 -- -- 34
2020-05-24 15:00:00 29.1 13 Este 26 Nordeste 0 -- -- 34
2020-05-24 14:00:00 28.8 13 Nordeste 24 Este 0 -- -- 33
2020-05-24 13:00:00 27.6 12 Este 30 Nordeste 0 -- -- 38
2020-05-24 12:00:00 28.3 14 Nordeste 27 Nordeste 0 -- -- 32
2020-05-24 11:00:00 27.8 13 Nordeste 30 Norte 0 -- -- 38
2020-05-24 10:00:00 28.4 21 Norte 30 Norte 0 -- -- 27
2020-05-24 09:00:00 26.6 18 Norte 28 Noroeste 0 -- -- 27
2020-05-24 08:00:00 24.9 10 Noroeste 24 Noroeste 0 -- -- 27
2020-05-24 07:00:00 23.7 14 Oeste 26 Noroeste 0 -- -- 30
2020-05-24 06:00:00 23.5 10 Noroeste 25 Noroeste 0 -- -- 32
2020-05-24 05:00:00 23.6 9 Noroeste 22 Noroeste 0 -- -- 33
2020-05-24 04:00:00 23.8 11 Noroeste 27 Noroeste 0 -- -- 35
2020-05-24 03:00:00 24.7 9 Noroeste 30 Noroeste 0 -- -- 32
2020-05-24 02:00:00 25.4 15 Oeste 32 Oeste 0 -- -- 30
2020-05-24 01:00:00 24.4 15 Oeste 23 Oeste 0 -- -- 34
2020-05-24 00:00:00 23.7 10 Noroeste 23 Oeste 0 -- -- 39
2020-05-23 23:00:00 22.6 5 Noroeste 19 Noroeste 0 -- -- 47
2020-05-23 22:00:00 20.2 5 Sur 10 Este 0 -- -- 74
2020-05-23 21:00:00 21.3 3 Sudeste 11 Sudeste 0 -- -- 73
2020-05-23 20:00:00 22.7 8 Sudeste 16 Este 0 -- -- 70
2020-05-23 19:00:00 25 7 Sudeste 20 Este 0 -- -- 63
2020-05-23 18:00:00 25 8 Este 21 Este 0 -- -- 63
2020-05-23 17:00:00 26.1 10 Sudeste 23 Este 0 -- -- 59
2020-05-23 16:00:00 27.8 9 Norte 26 Este 0 -- -- 52
2020-05-23 15:00:00 28.8 11 Norte 26 Este 0 -- -- 48
2020-05-23 14:00:00 27.9 13 Este 23 Nordeste 0 -- -- 50
2020-05-23 13:00:00 28.6 12 Este 22 Nordeste 0 -- -- 44
2020-05-23 12:00:00 29 9 Nordeste 21 Nordeste 0 -- -- 36
2020-05-23 11:00:00 28.4 10 Nordeste 20 Noroeste 0 -- -- 39
2020-05-23 10:00:00 28.9 13 Norte 26 Norte 0 -- -- 26
2020-05-23 09:00:00 27.2 10 Noroeste 20 Oeste 0 -- -- 29
2020-05-23 08:00:00 23.6 10 Oeste 17 Oeste 0 -- -- 35
2020-05-23 07:00:00 21.2 6 Oeste 17 Este 0 -- -- 47
2020-05-23 06:00:00 23.9 8 Noroeste 28 Oeste 0 -- -- 37
2020-05-23 05:00:00 21.3 10 Noroeste 26 Noroeste 0 -- -- 49
2020-05-23 04:00:00 21.6 14 Noroeste 36 Noroeste 0 -- -- 52
2020-05-23 03:00:00 22.5 19 Noroeste 37 Noroeste 0 -- -- 48
2020-05-23 02:00:00 21.9 15 Noroeste 39 Noroeste 0 -- -- 50
2020-05-23 01:00:00 22.1 19 Noroeste 40 Oeste 0 -- -- 49
2020-05-23 00:00:00 22.8 19 Noroeste 39 Noroeste 0 -- -- 43
2020-05-22 23:00:00 22.5 15 Noroeste 38 Noroeste 0 -- -- 45
2020-05-22 22:00:00 21.9 18 Noroeste 36 Noroeste 0 -- -- 49
2020-05-22 21:00:00 22.8 19 Norte 33 Norte 0 -- -- 50
2020-05-22 20:00:00 24.3 19 Noroeste 31 Noroeste 0 -- -- 46
2020-05-22 19:00:00 26.8 14 Norte 29 Noroeste 0 -- -- 40
2020-05-22 18:00:00 25.6 17 Norte 30 Norte 0 -- -- 50
2020-05-22 17:00:00 26.7 19 Norte 30 Noroeste 0 -- -- 44
2020-05-22 16:00:00 26.9 20 Norte 31 Norte 0 -- -- 40
2020-05-22 15:00:00 26.4 18 Norte 32 Norte 0 -- -- 44
2020-05-22 14:00:00 25.3 22 Norte 35 Norte 0 -- -- 45
2020-05-22 13:00:00 24.8 24 Norte 33 Norte 0 -- -- 47
2020-05-22 12:00:00 24.6 20 Norte 32 Norte 0 -- -- 44
2020-05-22 11:00:00 24 17 Norte 31 Noroeste 0 -- -- 44
2020-05-22 10:00:00 22.1 15 Norte 33 Noroeste 0 -- -- 46
2020-05-22 09:00:00 19.3 16 Norte 32 Norte 0 -- -- 57
2020-05-22 08:00:00 16.2 14 Noroeste 33 Norte 0 -- -- 72
2020-05-22 07:00:00 15.5 19 Norte 35 Norte 0 -- -- 76
2020-05-22 06:00:00 16.7 16 Norte 27 Noroeste 0 -- -- 63
2020-05-22 05:00:00 16 7 Noroeste 17 Oeste 0 -- -- 59
2020-05-22 04:00:00 16.4 9 Noroeste 41 Norte 0 -- -- 67
2020-05-22 03:00:00 16.2 25 Norte 40 Norte 0 -- -- 70
2020-05-22 02:00:00 15.7 27 Norte 40 Norte 0 -- -- 75
2020-05-22 01:00:00 15.8 27 Noroeste 41 Norte 0 -- -- 76
2020-05-22 00:00:00 15.9 24 Noroeste 45 Norte 0 -- -- 75
2020-05-21 23:00:00 16.1 19 Noroeste 37 Norte 0 -- -- 75
2020-05-21 22:00:00 16.3 20 Norte 40 Noroeste 0 -- -- 75
2020-05-21 21:00:00 16.7 27 Noroeste 44 Noroeste 0 -- -- 72
2020-05-21 20:00:00 18.4 21 Noroeste 42 Noroeste 0 -- -- 67
2020-05-21 19:00:00 20.1 22 Norte 40 Norte 0 -- -- 61
2020-05-21 18:00:00 21.2 22 Norte 45 Norte 0 -- -- 56
2020-05-21 17:00:00 21.1 26 Norte 47 Norte 0 -- -- 58
2020-05-21 16:00:00 21.7 22 Norte 39 Norte 0 -- -- 57
2020-05-21 15:00:00 22.1 21 Noroeste 41 Noroeste 0 -- -- 55
2020-05-21 14:00:00 23 18 Norte 32 Norte 0 -- -- 52
2020-05-21 13:00:00 21.9 17 Noroeste 33 Norte 0 -- -- 56
2020-05-21 12:00:00 21.2 20 Norte 38 Noroeste 0 -- -- 58
2020-05-21 11:00:00 21.1 23 Norte 36 Norte 0 -- -- 58
2020-05-21 10:00:00 20 23 Norte 32 Norte 0 -- -- 61
2020-05-21 09:00:00 17.9 19 Norte 32 Noroeste 0 -- -- 67
2020-05-21 08:00:00 16 20 Noroeste 32 Norte 0 -- -- 74
2020-05-21 07:00:00 15.9 22 Norte 34 Noroeste 0 -- -- 71
2020-05-21 06:00:00 16.2 17 Noroeste 35 Noroeste 0 -- -- 70
2020-05-21 05:00:00 16.4 18 Noroeste 37 Noroeste 0 -- -- 70
2020-05-21 04:00:00 17.1 21 Noroeste 39 Noroeste 0 -- -- 61
2020-05-21 03:00:00 18.7 18 Noroeste 29 Noroeste 0 -- -- 39
2020-05-21 02:00:00 18.9 10 Noroeste 31 Noroeste 0 -- -- 38
2020-05-21 01:00:00 18.9 12 Noroeste 27 Oeste 0 -- -- 40
2020-05-21 00:00:00 19.1 13 Noroeste 30 Noroeste 0 -- -- 40
2020-05-20 23:00:00 19 15 Noroeste 33 Norte 0 -- -- 43
2020-05-20 22:00:00 19 17 Noroeste 33 Noroeste 0 -- -- 49
2020-05-20 21:00:00 19.9 16 Noroeste 30 Noroeste 0 -- -- 50
2020-05-20 20:00:00 21.7 14 Noroeste 31 Norte 0 -- -- 53
2020-05-20 19:00:00 23.5 14 Norte 31 Noroeste 0 -- -- 50
2020-05-20 18:00:00 24.2 17 Norte 31 Norte 0 -- -- 46
2020-05-20 17:00:00 24.1 17 Noroeste 31 Noroeste 0 -- -- 48
2020-05-20 16:00:00 24.2 17 Norte 32 Noroeste 0 -- -- 48
2020-05-20 15:00:00 23.8 16 Noroeste 33 Norte 0 -- -- 54
2020-05-20 14:00:00 23.3 20 Noroeste 33 Norte 0 -- -- 56
2020-05-20 13:00:00 23.1 23 Norte 39 Norte 0 -- -- 56
2020-05-20 12:00:00 24 17 Norte 31 Norte 0 -- -- 52
2020-05-20 11:00:00 24 15 Norte 30 Norte 0 -- -- 50
2020-05-20 10:00:00 23 15 Norte 29 Noroeste 0 -- -- 46
2020-05-20 09:00:00 21.8 14 Noroeste 31 Noroeste 0 -- -- 44
2020-05-20 08:00:00 19.9 12 Noroeste 29 Norte 0 -- -- 42
2020-05-20 07:00:00 18.2 14 Norte 30 Norte 0 -- -- 59
2020-05-20 06:00:00 18.5 12 Noroeste 21 Noroeste 0 -- -- 54
2020-05-20 05:00:00 18.6 10 Noroeste 27 Noroeste 0 -- -- 54
2020-05-20 04:00:00 17.8 15 Noroeste 33 Noroeste 0 -- -- 68
2020-05-20 03:00:00 18.1 14 Noroeste 29 Noroeste 0 -- -- 66
2020-05-20 02:00:00 18.5 10 Noroeste 27 Noroeste 0 -- -- 58
2020-05-20 01:00:00 17.6 15 Noroeste 26 Noroeste 0 -- -- 71
2020-05-20 00:00:00 17.3 11 Noroeste 35 Noroeste 0 -- -- 76
2020-05-19 23:00:00 17.4 18 Noroeste 35 Noroeste 0 -- -- 77
2020-05-19 22:00:00 17.7 16 Norte 34 Oeste 0 -- -- 78
2020-05-19 21:00:00 18.1 18 Noroeste 32 Norte 0 -- -- 72
2020-05-19 20:00:00 19.4 15 Noroeste 36 Noroeste 0 -- -- 68
2020-05-19 19:00:00 21 23 Norte 40 Norte 0 -- -- 65
2020-05-19 18:00:00 22.1 24 Norte 40 Norte 0 -- -- 62
2020-05-19 17:00:00 23 20 Norte 37 Norte 0 -- -- 60
2020-05-19 16:00:00 23.4 17 Norte 33 Norte 0 -- -- 59
2020-05-19 15:00:00 22.8 22 Noroeste 36 Norte 0 -- -- 61
2020-05-19 14:00:00 23.2 22 Norte 31 Norte 0 -- -- 60
2020-05-19 13:00:00 23.3 18 Noroeste 31 Norte 0 -- -- 59
2020-05-19 12:00:00 22.5 21 Norte 30 Noroeste 0 -- -- 60
2020-05-19 11:00:00 21.5 15 Noroeste 30 Noroeste 0 -- -- 60
2020-05-19 10:00:00 19.6 19 Noroeste 29 Noroeste 0 -- -- 69
2020-05-19 09:00:00 17.9 14 Noroeste 32 Noroeste 0 -- -- 78
2020-05-19 08:00:00 17.3 17 Noroeste 27 Noroeste 0 -- -- 80
2020-05-19 07:00:00 17.1 10 Noroeste 21 Norte 0 -- -- 81
2020-05-19 06:00:00 16.9 13 Noroeste 27 Oeste 0 -- -- 80
2020-05-19 05:00:00 16.6 11 Noroeste 24 Noroeste 0 -- -- 79
2020-05-19 04:00:00 16.3 8 Noroeste 22 Noroeste 0 -- -- 78
2020-05-19 03:00:00 16.8 15 Noroeste 26 Noroeste 0 -- -- 81
2020-05-19 02:00:00 17 15 Noroeste 31 Noroeste 0 -- -- 77
2020-05-19 01:00:00 17.3 18 Noroeste 33 Noroeste 0 -- -- 78
2020-05-19 00:00:00 17.5 13 Noroeste 29 Noroeste 0 -- -- 77
2020-05-18 23:00:00 17.6 15 Noroeste 29 Noroeste 0 -- -- 76
2020-05-18 22:00:00 17.8 19 Noroeste 37 Noroeste 0 -- -- 74
2020-05-18 21:00:00 17.9 15 Noroeste 36 Noroeste 0 -- -- 73
2020-05-18 20:00:00 18.5 17 Noroeste 36 Noroeste 0 -- -- 72
2020-05-18 19:00:00 20 21 Norte 36 Noroeste 0 -- -- 68
2020-05-18 18:00:00 21.1 21 Norte 39 Noroeste 0 -- -- 62
2020-05-18 17:00:00 20.1 21 Noroeste 35 Noroeste 0 -- -- 65
2020-05-18 16:00:00 20.7 21 Norte 40 Noroeste 0 -- -- 65
2020-05-18 15:00:00 22.1 19 Norte 31 Norte 0 -- -- 58
2020-05-18 14:00:00 21 17 Norte 31 Noroeste 0 -- -- 64
2020-05-18 13:00:00 20.2 13 Noroeste 30 Norte 0 -- -- 61
2020-05-18 12:00:00 20.1 17 Norte 31 Noroeste 0 -- -- 64
2020-05-18 11:00:00 18.3 17 Norte 30 Norte 0 -- -- 72
2020-05-18 10:00:00 17.9 13 Noroeste 26 Noroeste 0 -- -- 73
2020-05-18 09:00:00 16.9 15 Noroeste 27 Noroeste 0 -- -- 77
2020-05-18 08:00:00 15.9 11 Noroeste 25 Norte 0 -- -- 78
2020-05-18 07:00:00 15.1 8 Noroeste 21 Noroeste 0 -- -- 81
2020-05-18 06:00:00 15.5 15 Noroeste 23 Noroeste 0 -- -- 82
2020-05-18 05:00:00 15.4 10 Noroeste 23 Noroeste 0 -- -- 83
2020-05-18 04:00:00 15.7 9 Noroeste 19 Noroeste 0 -- -- 83
2020-05-18 03:00:00 16.1 11 Noroeste 22 Noroeste 0 -- -- 83
2020-05-18 02:00:00 16.4 11 Noroeste 24 Oeste 0 -- -- 79
2020-05-18 01:00:00 16.2 11 Noroeste 24 Oeste 0 -- -- 74
2020-05-18 00:00:00 16 13 Oeste 25 Oeste 0 -- -- 72
2020-05-17 23:00:00 16 10 Noroeste 23 Oeste 0 -- -- 72
2020-05-17 22:00:00 16.1 13 Oeste 27 Oeste 0 -- -- 66
2020-05-17 21:00:00 16.2 10 Noroeste 24 Oeste 0 -- -- 66
2020-05-17 20:00:00 17 17 Noroeste 30 Noroeste 0 -- -- 65
2020-05-17 19:00:00 17.4 15 Noroeste 29 Noroeste 0 -- -- 68
2020-05-17 18:00:00 18.2 13 Norte 31 Nordeste 0 -- -- 68
2020-05-17 17:00:00 18 15 Norte 28 Nordeste 0 -- -- 69
2020-05-17 16:00:00 17.2 10 Norte 21 Noroeste 0 -- -- 77
2020-05-17 15:00:00 17.3 11 Norte 23 Noroeste 0.2 -- -- 78
2020-05-17 14:00:00 18.2 14 Noroeste 25 Oeste 0 -- -- 68
2020-05-17 13:00:00 18.4 12 Noroeste 27 Oeste 0 -- -- 66
2020-05-17 12:00:00 17.6 16 Norte 29 Norte 0 -- -- 65
2020-05-17 11:00:00 17.7 17 Norte 29 Norte 0 -- -- 65
2020-05-17 10:00:00 17.4 14 Noroeste 23 Noroeste 0 -- -- 69
2020-05-17 09:00:00 16.8 13 Norte 23 Noroeste 0 -- -- 74
2020-05-17 08:00:00 16.3 10 Norte 26 Norte 0 -- -- 79
2020-05-17 07:00:00 15.5 11 Norte 27 Nordeste 0 -- -- 83
2020-05-17 06:00:00 15.2 10 Noroeste 24 Norte 0.2 -- -- 86
2020-05-17 05:00:00 15.9 13 Noroeste 22 Noroeste 0 -- -- 78
2020-05-17 04:00:00 15.8 9 Noroeste 23 Noroeste 0 -- -- 78
2020-05-17 03:00:00 15.8 12 Noroeste 25 Noroeste 0 -- -- 77
2020-05-17 02:00:00 15.9 12 Norte 35 Noroeste 0 -- -- 77
2020-05-17 01:00:00 16.1 15 Noroeste 34 Noroeste 0 -- -- 74
2020-05-17 00:00:00 16.2 15 Noroeste 32 Noroeste 0 -- -- 74
2020-05-16 23:00:00 16.2 21 Noroeste 35 Oeste 0 -- -- 73
2020-05-16 22:00:00 16.3 14 Norte 31 Noroeste 0 -- -- 73
2020-05-16 21:00:00 16.3 15 Noroeste 33 Noroeste 0 -- -- 70
2020-05-16 20:00:00 16.7 20 Norte 35 Norte 0 -- -- 67
2020-05-16 19:00:00 18.2 17 Noroeste 35 Noroeste 0 -- -- 54
2020-05-16 18:00:00 18.6 22 Norte 38 Norte 0 -- -- 55
2020-05-16 17:00:00 19.6 23 Norte 40 Norte 0 -- -- 54
2020-05-16 16:00:00 20.2 20 Noroeste 44 Norte 0 -- -- 45
2020-05-16 15:00:00 20.6 23 Norte 43 Norte 0 -- -- 42
2020-05-16 14:00:00 20.5 22 Norte 39 Norte 0 -- -- 45
2020-05-16 13:00:00 20.4 18 Norte 40 Norte 0 -- -- 49
2020-05-16 12:00:00 19.7 21 Noroeste 45 Noroeste 0 -- -- 48
2020-05-16 11:00:00 18.8 18 Noroeste 39 Noroeste 0 -- -- 50
2020-05-16 10:00:00 17.2 21 Noroeste 45 Oeste 0 -- -- 56
2020-05-16 09:00:00 15.8 17 Noroeste 29 Norte 0 -- -- 69
2020-05-16 08:00:00 15.2 12 Noroeste 32 Norte 0.2 -- -- 76
2020-05-16 07:00:00 15.6 13 Noroeste 36 Oeste 0 -- -- 69
2020-05-16 06:00:00 15.5 17 Oeste 39 Noroeste 0 -- -- 72
2020-05-16 05:00:00 15.6 13 Noroeste 31 Norte 0 -- -- 78
2020-05-16 04:00:00 15.8 12 Norte 31 Noroeste 0 -- -- 79
2020-05-16 03:00:00 16.1 15 Noroeste 33 Noroeste 0 -- -- 77
2020-05-16 02:00:00 16.1 15 Noroeste 29 Noroeste 0 -- -- 77
2020-05-16 01:00:00 16.2 13 Noroeste 35 Noroeste 0 -- -- 77
2020-05-16 00:00:00 16.1 12 Noroeste 29 Norte 0 -- -- 74
2020-05-15 23:00:00 16.2 13 Noroeste 32 Noroeste 0 -- -- 75
2020-05-15 22:00:00 16.4 11 Noroeste 35 Noroeste 0 -- -- 74
2020-05-15 21:00:00 16.5 19 Noroeste 36 Noroeste 0 -- -- 72
2020-05-15 20:00:00 17.4 19 Noroeste 37 Noroeste 0 -- -- 68
2020-05-15 19:00:00 18.2 14 Noroeste 33 Norte 0 -- -- 61
2020-05-15 18:00:00 19 17 Noroeste 36 Noroeste 0 -- -- 64
2020-05-15 17:00:00 20.1 17 Noroeste 43 Noroeste 0 -- -- 56
2020-05-15 16:00:00 19.8 24 Noroeste 44 Noroeste 0 -- -- 57
2020-05-15 15:00:00 20.9 15 Noroeste 41 Norte 0 -- -- 58
2020-05-15 14:00:00 18.5 15 Noroeste 38 Noroeste 0.2 -- -- 68
2020-05-15 13:00:00 17.6 15 Noroeste 32 Noroeste 0.2 -- -- 73
2020-05-15 12:00:00 17 22 Noroeste 40 Noroeste 0 -- -- 72
2020-05-15 11:00:00 18.1 17 Noroeste 41 Noroeste 0 -- -- 68
2020-05-15 10:00:00 18.1 19 Noroeste 40 Oeste 0 -- -- 66
2020-05-15 09:00:00 17.4 19 Oeste 47 Oeste 0 -- -- 63
2020-05-15 08:00:00 16.2 17 Noroeste 51 Oeste 0 -- -- 64
2020-05-15 07:00:00 15.9 19 Oeste 46 Oeste 0 -- -- 57
2020-05-15 06:00:00 15.1 19 Oeste 34 Oeste 0 -- -- 62
2020-05-15 05:00:00 15 22 Oeste 40 Noroeste 0 -- -- 62
2020-05-15 04:00:00 15 16 Noroeste 44 Oeste 0 -- -- 66
2020-05-15 03:00:00 15.2 18 Oeste 43 Noroeste 0 -- -- 62
2020-05-15 02:00:00 15.3 15 Noroeste 38 Noroeste 0.2 -- -- 70
2020-05-15 01:00:00 15.5 11 Noroeste 41 Noroeste 0 -- -- 73
2020-05-15 00:00:00 16.1 22 Noroeste 42 Noroeste 0 -- -- 68
2020-05-14 23:00:00 16.1 11 Noroeste 43 Noroeste 0 -- -- 66
2020-05-14 22:00:00 16.1 13 Noroeste 36 Oeste 0 -- -- 67
2020-05-14 21:00:00 16.6 13 Oeste 40 Noroeste 0 -- -- 61
2020-05-14 20:00:00 17.2 18 Noroeste 41 Noroeste 0 -- -- 62
2020-05-14 19:00:00 17.5 26 Noroeste 54 Noroeste 0 -- -- 59
2020-05-14 18:00:00 18.9 16 Noroeste 42 Noroeste 0 -- -- 59
2020-05-14 17:00:00 18.8 16 Norte 42 Noroeste 0 -- -- 65
2020-05-14 16:00:00 19 21 Noroeste 35 Noroeste 0 -- -- 63
2020-05-14 15:00:00 19.6 14 Nordeste 28 Sudeste 0 -- -- 61
2020-05-14 14:00:00 20.5 13 Este 37 Norte 0 -- -- 60
2020-05-14 13:00:00 22.8 19 Norte 40 Noroeste 0 -- -- 47
2020-05-14 12:00:00 21.7 18 Noroeste 44 Noroeste 0 -- -- 43
2020-05-14 11:00:00 20.2 23 Noroeste 49 Oeste 0 -- -- 47
2020-05-14 10:00:00 19.9 12 Norte 29 Oeste 0 -- -- 60
2020-05-14 09:00:00 18.4 12 Oeste 28 Noroeste 0 -- -- 56
2020-05-14 08:00:00 16.3 3 Sudeste 34 Oeste 0 -- -- 57
2020-05-14 07:00:00 15.5 8 Oeste 35 Oeste 0 -- -- 59
2020-05-14 06:00:00 16.5 15 Oeste 35 Sudoeste 0 -- -- 53
2020-05-14 05:00:00 16.6 17 Oeste 32 Noroeste 0 -- -- 49
2020-05-14 04:00:00 16.1 13 Noroeste 30 Noroeste 0 -- -- 57
2020-05-14 03:00:00 16.1 18 Noroeste 37 Noroeste 0 -- -- 69
2020-05-14 02:00:00 16.2 10 Noroeste 33 Oeste 0 -- -- 60
2020-05-14 01:00:00 16.1 11 Oeste 32 Noroeste 0 -- -- 52
2020-05-14 00:00:00 16 7 Oeste 30 Noroeste 0 -- -- 65
2020-05-13 23:00:00 16.4 11 Oeste 30 Oeste 0 -- -- 61
2020-05-13 22:00:00 16.4 10 Noroeste 34 Noroeste 0 -- -- 64
2020-05-13 21:00:00 16.8 16 Noroeste 39 Norte 0 -- -- 66
2020-05-13 20:00:00 18.3 19 Norte 37 Norte 0 -- -- 66
2020-05-13 19:00:00 19.8 21 Norte 36 Norte 0 -- -- 61
2020-05-13 18:00:00 20.2 14 Noroeste 35 Noroeste 0 -- -- 62
2020-05-13 17:00:00 20.7 12 Norte 32 Oeste 0 -- -- 64
2020-05-13 16:00:00 22.4 16 Norte 30 Noroeste 0 -- -- 60
2020-05-13 15:00:00 22.1 12 Sudeste 33 Este 0 -- -- 57
2020-05-13 14:00:00 23.9 19 Este 38 Norte 0 -- -- 51
2020-05-13 13:00:00 24.1 21 Noroeste 45 Oeste 0 -- -- 35
2020-05-13 12:00:00 23.4 17 Noroeste 44 Oeste 0 -- -- 39
2020-05-13 11:00:00 21 14 Noroeste 45 Oeste 0 -- -- 53
2020-05-13 10:00:00 19.3 6 Este 15 Sudeste 0 -- -- 61
2020-05-13 09:00:00 18.2 3 Sudeste 10 Sudeste 0 -- -- 63
2020-05-13 08:00:00 17 3 Norte 18 Norte 0 -- -- 63
2020-05-13 07:00:00 17.3 10 Oeste 24 Oeste 0 -- -- 59
2020-05-13 06:00:00 17.3 11 Norte 23 Noroeste 0 -- -- 70
2020-05-13 05:00:00 17.4 13 Noroeste 25 Oeste 0 -- -- 69
2020-05-13 04:00:00 17.7 13 Noroeste 27 Noroeste 0 -- -- 64
2020-05-13 03:00:00 17.6 15 Oeste 36 Oeste 0 -- -- 60
2020-05-13 02:00:00 17.4 14 Noroeste 34 Noroeste 0 -- -- 65
2020-05-13 01:00:00 17.6 13 Oeste 31 Oeste 0 -- -- 66
2020-05-13 00:00:00 17.9 12 Oeste 37 Oeste 0 -- -- 67
2020-05-12 23:00:00 18.1 14 Oeste 30 Norte 0 -- -- 67
2020-05-12 22:00:00 18 9 Noroeste 38 Noroeste 0 -- -- 69
2020-05-12 21:00:00 18 13 Noroeste 38 Noroeste 0 -- -- 65
2020-05-12 20:00:00 18.9 21 Noroeste 39 Noroeste 0 -- -- 61
2020-05-12 19:00:00 20.9 13 Noroeste 34 Noroeste 0 -- -- 57
2020-05-12 18:00:00 21.8 22 Noroeste 41 Norte 0 -- -- 53
2020-05-12 17:00:00 22.7 17 Norte 39 Norte 0 -- -- 51
2020-05-12 16:00:00 23.2 16 Noroeste 40 Noroeste 0 -- -- 46
2020-05-12 15:00:00 22.3 26 Norte 45 Norte 0 -- -- 52
2020-05-12 14:00:00 22.5 19 Noroeste 44 Noroeste 0 -- -- 47
2020-05-12 13:00:00 21.3 23 Noroeste 45 Oeste 0 -- -- 49
2020-05-12 12:00:00 19.9 26 Noroeste 46 Oeste 0 -- -- 56
2020-05-12 11:00:00 18.5 15 Norte 36 Norte 0 -- -- 67
2020-05-12 10:00:00 16.7 17 Noroeste 29 Norte 0.2 -- -- 77
2020-05-12 09:00:00 17.2 14 Noroeste 29 Oeste 0 -- -- 73
2020-05-12 08:00:00 17 10 Noroeste 26 Oeste 0 -- -- 64
2020-05-12 07:00:00 16.2 11 Noroeste 25 Noroeste 0 -- -- 61
2020-05-12 06:00:00 16 10 Oeste 28 Oeste 0 -- -- 60
2020-05-12 05:00:00 16.2 12 Oeste 30 Oeste 0 -- -- 63
2020-05-12 04:00:00 16.5 11 Noroeste 31 Oeste 0 -- -- 64
2020-05-12 03:00:00 16.5 16 Oeste 32 Oeste 0 -- -- 68
2020-05-12 02:00:00 16.3 12 Noroeste 31 Noroeste 0 -- -- 66
2020-05-12 01:00:00 16.5 21 Noroeste 36 Noroeste 0 -- -- 69
2020-05-12 00:00:00 16.8 14 Norte 30 Noroeste 0 -- -- 77
2020-05-11 23:00:00 17.5 18 Norte 30 Norte 0 -- -- 82
2020-05-11 22:00:00 18.2 10 Noroeste 30 Noroeste 0 -- -- 81
2020-05-11 21:00:00 19.3 14 Norte 31 Noroeste 0 -- -- 71
2020-05-11 20:00:00 20.8 17 Norte 44 Noroeste 0 -- -- 67
2020-05-11 19:00:00 23 18 Norte 40 Norte 0 -- -- 54
2020-05-11 18:00:00 23.4 22 Noroeste 48 Noroeste 0 -- -- 51
2020-05-11 17:00:00 23.9 23 Noroeste 45 Noroeste 0 -- -- 48
2020-05-11 16:00:00 24.5 9 Sudoeste 30 Sudeste 0 -- -- 54
2020-05-11 15:00:00 24.3 12 Este 31 Este 0 -- -- 53
2020-05-11 14:00:00 24.6 19 Norte 30 Norte 0 -- -- 51
2020-05-11 13:00:00 23.7 18 Norte 35 Norte 0 -- -- 55
2020-05-11 12:00:00 22.4 21 Noroeste 40 Norte 0 -- -- 56
2020-05-11 11:00:00 20.8 23 Noroeste 42 Oeste 0 -- -- 59
2020-05-11 10:00:00 20.1 19 Noroeste 37 Noroeste 0 -- -- 65
2020-05-11 09:00:00 18.8 13 Noroeste 34 Noroeste 0 -- -- 68
2020-05-11 08:00:00 17.9 17 Norte 33 Noroeste 0 -- -- 77
2020-05-11 07:00:00 17.7 8 Noroeste 24 Noroeste 0 -- -- 72
2020-05-11 06:00:00 17.6 13 Noroeste 28 Oeste 0 -- -- 72
2020-05-11 05:00:00 17.5 12 Noroeste 37 Noroeste 0 -- -- 74
2020-05-11 04:00:00 17.2 12 Noroeste 37 Noroeste 0 -- -- 76
2020-05-11 03:00:00 17.5 15 Noroeste 41 Noroeste 0 -- -- 75
2020-05-11 02:00:00 18 12 Noroeste 40 Oeste 0 -- -- 74
2020-05-11 01:00:00 18.2 16 Noroeste 36 Noroeste 0 -- -- 73
2020-05-11 00:00:00 18.2 21 Noroeste 38 Noroeste 0 -- -- 73
2020-05-10 23:00:00 17.9 20 Noroeste 41 Oeste 0 -- -- 73
2020-05-10 22:00:00 17.8 17 Noroeste 44 Norte 0 -- -- 69
2020-05-10 21:00:00 18.1 14 Noroeste 46 Noroeste 0 -- -- 70
2020-05-10 20:00:00 19.6 17 Noroeste 43 Noroeste 0 -- -- 60
2020-05-10 19:00:00 21.1 18 Noroeste 52 Noroeste 0 -- -- 55
2020-05-10 18:00:00 21.6 26 Noroeste 50 Noroeste 0 -- -- 58
2020-05-10 17:00:00 23.2 20 Noroeste 43 Noroeste 0 -- -- 55
2020-05-10 16:00:00 23.8 21 Noroeste 43 Noroeste 0 -- -- 53
2020-05-10 15:00:00 24.3 19 Norte 40 Norte 0 -- -- 50
2020-05-10 14:00:00 23.9 19 Norte 38 Noroeste 0 -- -- 48
2020-05-10 13:00:00 22.3 21 Noroeste 46 Noroeste 0 -- -- 51
2020-05-10 12:00:00 20.7 24 Noroeste 39 Noroeste 0 -- -- 58
2020-05-10 11:00:00 19.7 19 Noroeste 36 Noroeste 0 -- -- 64
2020-05-10 10:00:00 18.6 17 Noroeste 39 Oeste 0 -- -- 67
2020-05-10 09:00:00 18.5 14 Noroeste 31 Noroeste 0 -- -- 62
2020-05-10 08:00:00 17.2 16 Noroeste 36 Oeste 0 -- -- 66
2020-05-10 07:00:00 16.9 22 Noroeste 34 Noroeste 0 -- -- 65
2020-05-10 06:00:00 16.8 14 Oeste 28 Oeste 0 -- -- 73
2020-05-10 05:00:00 17 17 Norte 33 Noroeste 0 -- -- 79
2020-05-10 04:00:00 17.6 17 Oeste 34 Oeste 0 -- -- 69
2020-05-10 03:00:00 17.4 18 Noroeste 36 Noroeste 0 -- -- 71
2020-05-10 02:00:00 17.4 17 Noroeste 39 Oeste 0 -- -- 67
2020-05-10 01:00:00 17.6 18 Noroeste 41 Oeste 0 -- -- 69
2020-05-10 00:00:00 17.9 27 Oeste 47 Noroeste 0 -- -- 66
2020-05-09 23:00:00 17.9 24 Noroeste 41 Noroeste 0 -- -- 69
2020-05-09 22:00:00 17.9 13 Noroeste 39 Norte 0 -- -- 68
2020-05-09 21:00:00 18.3 22 Noroeste 40 Noroeste 0 -- -- 67
2020-05-09 20:00:00 19.9 19 Noroeste 43 Noroeste 0 -- -- 64
2020-05-09 19:00:00 21.3 23 Noroeste 48 Noroeste 0 -- -- 60
2020-05-09 18:00:00 22.8 25 Norte 45 Norte 0 -- -- 56
2020-05-09 17:00:00 23.3 21 Norte 43 Noroeste 0 -- -- 56
2020-05-09 16:00:00 23.3 24 Norte 42 Noroeste 0 -- -- 57
2020-05-09 15:00:00 22.3 26 Norte 50 Noroeste 0 -- -- 60
2020-05-09 14:00:00 23.5 21 Noroeste 40 Norte 0 -- -- 62
2020-05-09 13:00:00 23 21 Noroeste 37 Norte 0 -- -- 58
2020-05-09 12:00:00 23.2 20 Norte 32 Norte 0 -- -- 54
2020-05-09 11:00:00 23.4 17 Norte 30 Norte 0 -- -- 50
2020-05-09 10:00:00 22.2 15 Norte 25 Norte 0 -- -- 49
2020-05-09 09:00:00 20.3 14 Noroeste 34 Noroeste 0 -- -- 56
2020-05-09 08:00:00 17.6 11 Noroeste 31 Noroeste 0 -- -- 66
2020-05-09 07:00:00 14.7 3 Oeste 12 Sudoeste 0 -- -- 68
2020-05-09 06:00:00 13.8 6 Sudoeste 10 Sudoeste 0 -- -- 67
2020-05-09 05:00:00 13.8 6 Sudoeste 11 Sudoeste 0 -- -- 64
2020-05-09 04:00:00 14.2 8 Sudoeste 13 Sudoeste 0 -- -- 63
2020-05-09 03:00:00 14.8 6 Sudoeste 16 Norte 0 -- -- 64
2020-05-09 02:00:00 16.5 10 Noroeste 20 Norte 0 -- -- 71
2020-05-09 01:00:00 16.7 12 Noroeste 26 Noroeste 0 -- -- 72
2020-05-09 00:00:00 16.9 10 Norte 21 Noroeste 0 -- -- 71
2020-05-08 23:00:00 17.1 9 Noroeste 26 Norte 0 -- -- 73
2020-05-08 22:00:00 17.4 13 Norte 27 Norte 0 -- -- 72
2020-05-08 21:00:00 17.9 14 Norte 25 Norte 0 -- -- 73
2020-05-08 20:00:00 19.6 14 Noroeste 35 Norte 0 -- -- 68
2020-05-08 19:00:00 20.8 15 Norte 34 Norte 0 -- -- 65
2020-05-08 18:00:00 22.2 14 Norte 29 Norte 0 -- -- 60
2020-05-08 17:00:00 22.1 15 Nordeste 34 Este 0 -- -- 57
2020-05-08 16:00:00 22.7 14 Nordeste 34 Norte 0 -- -- 55
2020-05-08 15:00:00 22.8 20 Norte 36 Norte 0 -- -- 54
2020-05-08 14:00:00 23.2 13 Norte 32 Noroeste 0 -- -- 53
2020-05-08 13:00:00 22.6 12 Norte 30 Noroeste 0 -- -- 56
2020-05-08 12:00:00 21.6 16 Norte 34 Norte 0 -- -- 56
2020-05-08 11:00:00 20.9 14 Norte 35 Noroeste 0 -- -- 57
2020-05-08 10:00:00 19 14 Noroeste 29 Noroeste 0 -- -- 65
2020-05-08 09:00:00 18.2 12 Noroeste 24 Noroeste 0 -- -- 67
2020-05-08 08:00:00 16.6 11 Noroeste 22 Noroeste 0 -- -- 68
2020-05-08 07:00:00 16.4 12 Noroeste 24 Noroeste 0 -- -- 61
2020-05-08 06:00:00 16.5 13 Noroeste 23 Noroeste 0 -- -- 61
2020-05-08 05:00:00 16.2 10 Noroeste 18 Norte 0 -- -- 60
2020-05-08 04:00:00 16.3 10 Noroeste 27 Noroeste 0 -- -- 63
2020-05-08 03:00:00 16.2 10 Noroeste 23 Noroeste 0 -- -- 68
2020-05-08 02:00:00 16.5 12 Noroeste 29 Oeste 0 -- -- 68
2020-05-08 01:00:00 16.5 12 Noroeste 26 Noroeste 0 -- -- 72
2020-05-08 00:00:00 17 12 Noroeste 27 Noroeste 0 -- -- 71
2020-05-07 23:00:00 17.1 14 Noroeste 31 Noroeste 0 -- -- 72
2020-05-07 22:00:00 17.3 9 Noroeste 25 Noroeste 0 -- -- 69
2020-05-07 21:00:00 17.5 9 Noroeste 27 Oeste 0 -- -- 71
2020-05-07 20:00:00 19.3 15 Norte 33 Noroeste 0 -- -- 65
2020-05-07 19:00:00 20.6 17 Norte 30 Noroeste 0 -- -- 59
2020-05-07 18:00:00 20 17 Norte 33 Norte 0 -- -- 59
2020-05-07 17:00:00 20 18 Norte 29 Noroeste 0 -- -- 58
2020-05-07 16:00:00 20 22 Norte 31 Norte 0 -- -- 60
2020-05-07 15:00:00 20 12 Norte 31 Noroeste 0 -- -- 58
2020-05-07 14:00:00 19.3 19 Noroeste 33 Noroeste 0 -- -- 59
2020-05-07 13:00:00 19.6 13 Norte 31 Nordeste 0 -- -- 63
2020-05-07 12:00:00 20.8 15 Norte 28 Norte 0 -- -- 63
2020-05-07 11:00:00 19.2 14 Noroeste 28 Norte 0 -- -- 64
2020-05-07 10:00:00 18.2 14 Noroeste 32 Oeste 0 -- -- 64
2020-05-07 09:00:00 17.8 13 Norte 24 Norte 0 -- -- 67
2020-05-07 08:00:00 16.4 12 Noroeste 28 Oeste 0 -- -- 71
2020-05-07 07:00:00 16 12 Noroeste 24 Noroeste 0 -- -- 71
2020-05-07 06:00:00 15.9 11 Noroeste 21 Noroeste 0 -- -- 72
2020-05-07 05:00:00 16.1 8 Noroeste 23 Noroeste 0 -- -- 69
2020-05-07 04:00:00 16 10 Noroeste 21 Noroeste 0 -- -- 73
2020-05-07 03:00:00 16.1 7 Noroeste 19 Noroeste 0 -- -- 72
2020-05-07 02:00:00 16.2 10 Noroeste 19 Noroeste 0 -- -- 75
2020-05-07 01:00:00 16.5 11 Noroeste 24 Noroeste 0 -- -- 75
2020-05-07 00:00:00 16.9 10 Noroeste 26 Oeste 0 -- -- 71
2020-05-06 23:00:00 16.7 12 Oeste 23 Oeste 0 -- -- 73
2020-05-06 22:00:00 16.7 10 Noroeste 22 Noroeste 0 -- -- 75
2020-05-06 21:00:00 17 12 Norte 22 Norte 0 -- -- 77
2020-05-06 20:00:00 17.8 13 Noroeste 27 Norte 0 -- -- 76
2020-05-06 19:00:00 18.6 15 Norte 30 Noroeste 0 -- -- 72
2020-05-06 18:00:00 19.4 16 Norte 30 Oeste 0 -- -- 67
2020-05-06 17:00:00 20.2 18 Norte 29 Noroeste 0 -- -- 63
2020-05-06 16:00:00 20.3 16 Nordeste 31 Nordeste 0 -- -- 67
2020-05-06 15:00:00 22 13 Norte 30 Norte 0 -- -- 56
2020-05-06 14:00:00 20.9 15 Nordeste 31 Noroeste 0 -- -- 63
2020-05-06 13:00:00 21.5 14 Norte 27 Norte 0 -- -- 58
2020-05-06 12:00:00 20.5 18 Norte 30 Norte 0 -- -- 59
2020-05-06 11:00:00 19.2 18 Noroeste 28 Norte 0 -- -- 65
2020-05-06 10:00:00 18.5 14 Noroeste 31 Noroeste 0 -- -- 68
2020-05-06 09:00:00 17.5 12 Noroeste 24 Noroeste 0 -- -- 69
2020-05-06 08:00:00 16 10 Noroeste 21 Noroeste 0 -- -- 74
2020-05-06 07:00:00 15.2 15 Oeste 21 Oeste 0 -- -- 71
2020-05-06 06:00:00 14.7 13 Oeste 18 Oeste 0 -- -- 72
2020-05-06 05:00:00 15.6 14 Oeste 21 Oeste 0 -- -- 72
2020-05-06 04:00:00 15.7 12 Oeste 22 Noroeste 0 -- -- 71
2020-05-06 03:00:00 15.9 12 Oeste 26 Oeste 0 -- -- 70
2020-05-06 02:00:00 16.2 10 Oeste 24 Noroeste 0 -- -- 68
2020-05-06 01:00:00 16.4 10 Noroeste 20 Oeste 0 -- -- 65
2020-05-06 00:00:00 16.5 12 Noroeste 23 Noroeste 0 -- -- 66
2020-05-05 23:00:00 17.1 10 Noroeste 25 Noroeste 0 -- -- 55
2020-05-05 22:00:00 17.1 15 Noroeste 24 Noroeste 0 -- -- 56
2020-05-05 21:00:00 17.4 14 Noroeste 26 Noroeste 0 -- -- 63
2020-05-05 20:00:00 19.1 17 Norte 30 Norte 0 -- -- 59
2020-05-05 19:00:00 20.3 16 Noroeste 32 Noroeste 0 -- -- 51
2020-05-05 18:00:00 21 18 Norte 33 Norte 0 -- -- 53
2020-05-05 17:00:00 21.9 18 Norte 39 Norte 0 -- -- 48
2020-05-05 16:00:00 22.4 19 Norte 34 Norte 0 -- -- 50
2020-05-05 15:00:00 22.2 19 Norte 39 Nordeste 0 -- -- 53
2020-05-05 14:00:00 21.8 21 Norte 36 Norte 0 -- -- 52
2020-05-05 13:00:00 21.6 20 Norte 36 Norte 0 -- -- 55
2020-05-05 12:00:00 21.1 21 Norte 32 Noroeste 0 -- -- 55
2020-05-05 11:00:00 20.3 18 Norte 30 Noroeste 0 -- -- 57
2020-05-05 10:00:00 18.7 15 Noroeste 35 Noroeste 0 -- -- 63
2020-05-05 09:00:00 16.7 13 Noroeste 29 Noroeste 0 -- -- 70
2020-05-05 08:00:00 16 12 Noroeste 26 Noroeste 0 -- -- 74
2020-05-05 07:00:00 15.9 15 Noroeste 28 Noroeste 0 -- -- 72
2020-05-05 06:00:00 15.8 12 Noroeste 27 Noroeste 0 -- -- 74
2020-05-05 05:00:00 15.2 7 Noroeste 16 Noroeste 0 -- -- 73
2020-05-05 04:00:00 15.9 9 Noroeste 22 Noroeste 0 -- -- 76
2020-05-05 03:00:00 16.4 10 Noroeste 19 Oeste 0 -- -- 69
2020-05-05 02:00:00 16.3 7 Oeste 16 Noroeste 0 -- -- 75
2020-05-05 01:00:00 16.8 5 Noroeste 20 Noroeste 0 -- -- 74
2020-05-05 00:00:00 17.4 9 Noroeste 17 Noroeste 0 -- -- 76
2020-05-04 23:00:00 17.4 6 Noroeste 17 Noroeste 0 -- -- 76
2020-05-04 22:00:00 17.4 7 Noroeste 26 Noroeste 0 -- -- 77
2020-05-04 21:00:00 17.7 8 Noroeste 23 Oeste 0 -- -- 74
2020-05-04 20:00:00 17.6 7 Noroeste 17 Noroeste 0 -- -- 82
2020-05-04 19:00:00 18.1 9 Noroeste 23 Noroeste 0 -- -- 81
2020-05-04 18:00:00 19.5 13 Norte 20 Norte 0 -- -- 71
2020-05-04 17:00:00 19.5 9 Nordeste 18 Nordeste 0 -- -- 76
2020-05-04 16:00:00 19.6 6 Nordeste 15 Nordeste 0 -- -- 73
2020-05-04 15:00:00 19 7 Nordeste 15 Nordeste 0 -- -- 78
2020-05-04 14:00:00 18.5 7 Este 18 Nordeste 0 -- -- 80
2020-05-04 13:00:00 19.3 7 Nordeste 21 Este 0 -- -- 75
2020-05-04 12:00:00 20.3 10 Nordeste 20 Este 0 -- -- 69
2020-05-04 11:00:00 19.2 8 Este 17 Este 0 -- -- 72
2020-05-04 10:00:00 18.9 5 Nordeste 18 Nordeste 0 -- -- 73
2020-05-04 09:00:00 18.5 7 Norte 19 Noroeste 0 -- -- 72
2020-05-04 08:00:00 17.6 5 Oeste 13 Oeste 0 -- -- 73
2020-05-04 07:00:00 15.4 7 Oeste 10 Oeste 0 -- -- 82
2020-05-04 06:00:00 15.6 8 Oeste 14 Oeste 0 -- -- 83
2020-05-04 05:00:00 15.5 7 Sudoeste 15 Oeste 0 -- -- 80
2020-05-04 04:00:00 15.3 7 Oeste 10 Oeste 0 -- -- 79
2020-05-04 03:00:00 15.9 6 Oeste 10 Oeste 0 -- -- 78
2020-05-04 02:00:00 16.4 4 Sudoeste 8 Sudoeste 0 -- -- 80
2020-05-04 01:00:00 17.7 0 Calma 10 Este 0 -- -- 81
2020-05-04 00:00:00 18.4 3 Nordeste 8 Nordeste 0 -- -- 81
2020-05-03 23:00:00 18.3 3 Este 7 Este 0 -- -- 83
2020-05-03 22:00:00 17.9 0 Calma 7 Sudeste 0 -- -- 86
2020-05-03 21:00:00 18.4 5 Este 10 Sudeste 0 -- -- 83
2020-05-03 20:00:00 19.7 6 Este 14 Nordeste 0 -- -- 78
2020-05-03 19:00:00 20.6 9 Nordeste 18 Nordeste 0 -- -- 74
2020-05-03 18:00:00 21.6 8 Nordeste 21 Este 0 -- -- 69
2020-05-03 17:00:00 22.1 10 Este 22 Nordeste 0 -- -- 68
2020-05-03 16:00:00 22 10 Nordeste 24 Nordeste 0 -- -- 69
2020-05-03 15:00:00 22.3 10 Nordeste 25 Este 0 -- -- 67
2020-05-03 14:00:00 22.4 13 Nordeste 24 Nordeste 0 -- -- 65
2020-05-03 13:00:00 22.5 11 Este 22 Este 0 -- -- 64
2020-05-03 12:00:00 21.4 13 Este 21 Este 0 -- -- 66
2020-05-03 11:00:00 20.8 9 Este 17 Este 0 -- -- 67
2020-05-03 10:00:00 19.1 6 Este 12 Nordeste 0 -- -- 72
2020-05-03 09:00:00 16.2 3 Norte 9 Oeste 0 -- -- 79
2020-05-03 08:00:00 12.9 6 Oeste 10 Oeste 0 -- -- 87
2020-05-03 07:00:00 13.3 3 Sudoeste 16 Sudoeste 0 -- -- 89
2020-05-03 06:00:00 14.4 5 Sudoeste 11 Sudoeste 0 -- -- 89
2020-05-03 05:00:00 13.5 4 Oeste 6 Oeste 0 -- -- 87
2020-05-03 04:00:00 14.4 0 Calma 6 Oeste 0 -- -- 88
2020-05-03 03:00:00 14.6 0 Calma 9 Oeste 0 -- -- 79
2020-05-03 02:00:00 15.2 3 Oeste 8 Oeste 0 -- -- 82
2020-05-03 01:00:00 16.9 3 Sudoeste 14 Oeste 0 -- -- 68
2020-05-03 00:00:00 16.3 8 Sudoeste 11 Sudoeste 0 -- -- 79
2020-05-02 23:00:00 16.7 3 Oeste 6 Oeste 0 -- -- 89
2020-05-02 22:00:00 17.2 0 Calma 8 Este 0 -- -- 88
2020-05-02 21:00:00 18 5 Este 12 Este 0 -- -- 85
2020-05-02 20:00:00 20.1 5 Este 11 Nordeste 0 -- -- 76
2020-05-02 19:00:00 21 8 Este 16 Este 0 -- -- 72
2020-05-02 18:00:00 22 10 Este 18 Este 0 -- -- 67
2020-05-02 17:00:00 22.8 9 Este 20 Este 0 -- -- 64
2020-05-02 16:00:00 23.1 10 Este 19 Nordeste 0 -- -- 61
2020-05-02 15:00:00 22.5 10 Este 19 Nordeste 0 -- -- 62
2020-05-02 14:00:00 22.5 11 Nordeste 22 Nordeste 0 -- -- 61
2020-05-02 13:00:00 21.9 10 Nordeste 22 Este 0 -- -- 62
2020-05-02 12:00:00 21.1 8 Este 19 Este 0 -- -- 64
2020-05-02 11:00:00 19.9 9 Este 18 Este 0 -- -- 69
2020-05-02 10:00:00 18.9 8 Este 14 Este 0 -- -- 73
2020-05-02 09:00:00 16.7 4 Noroeste 12 Noroeste 0 -- -- 81
2020-05-02 08:00:00 13.6 8 Oeste 15 Oeste 0 -- -- 81
2020-05-02 07:00:00 13.2 12 Oeste 18 Oeste 0 -- -- 82
2020-05-02 06:00:00 14 15 Oeste 19 Oeste 0 -- -- 79
2020-05-02 05:00:00 14.6 11 Oeste 21 Oeste 0 -- -- 81
2020-05-02 04:00:00 15.2 10 Oeste 22 Oeste 0 -- -- 78
2020-05-02 03:00:00 15.9 9 Noroeste 26 Oeste 0 -- -- 81
2020-05-02 02:00:00 16.1 12 Norte 25 Noroeste 0 -- -- 81
2020-05-02 01:00:00 16.4 12 Norte 30 Noroeste 0 -- -- 80
2020-05-02 00:00:00 16.8 18 Noroeste 31 Noroeste 0 -- -- 77